createdAt,value
2023-03-15T00:00:23.948Z,21.93
2023-03-15T00:02:50.986Z,21.94
2023-03-15T00:05:18.055Z,21.93
2023-03-15T00:07:44.997Z,21.95
2023-03-15T00:10:12.184Z,21.92
2023-03-15T00:12:39.115Z,21.94
2023-03-15T00:15:06.450Z,21.95
2023-03-15T00:17:35.357Z,21.95
2023-03-15T00:20:02.910Z,21.95
2023-03-15T00:22:30.097Z,21.95
2023-03-15T00:24:56.988Z,21.93
2023-03-15T00:27:23.880Z,21.93
2023-03-15T00:29:51.762Z,21.93
2023-03-15T00:32:18.692Z,21.93
2023-03-15T00:34:49.299Z,21.92
2023-03-15T00:37:17.479Z,21.88
2023-03-15T00:39:45.734Z,21.88
2023-03-15T00:42:15.801Z,21.89
2023-03-15T00:44:43.336Z,21.89
2023-03-15T00:47:11.331Z,21.86
2023-03-15T00:49:38.451Z,21.87
2023-03-15T00:52:05.848Z,21.87
2023-03-15T00:54:34.386Z,21.86
2023-03-15T00:57:01.653Z,21.82
2023-03-15T00:59:29.439Z,21.81
2023-03-15T01:01:56.377Z,21.80
2023-03-15T01:04:23.287Z,21.80
2023-03-15T01:06:50.309Z,21.78
2023-03-15T01:09:17.997Z,21.77
2023-03-15T01:11:44.880Z,21.72
2023-03-15T01:14:11.819Z,21.70
2023-03-15T01:16:38.778Z,21.69
2023-03-15T01:19:05.824Z,21.65
2023-03-15T01:21:32.848Z,21.63
2023-03-15T01:23:59.795Z,21.61
2023-03-15T01:26:26.688Z,21.59
2023-03-15T01:28:53.640Z,21.55
2023-03-15T01:31:24.622Z,21.53
2023-03-15T01:33:51.789Z,21.49
2023-03-15T01:36:19.256Z,21.48
2023-03-15T01:38:46.216Z,21.45
2023-03-15T01:41:14.048Z,21.41
2023-03-15T01:43:47.524Z,21.37
2023-03-15T01:46:17.594Z,21.35
2023-03-15T01:48:47.926Z,21.31
2023-03-15T01:51:18.542Z,21.24
2023-03-15T01:53:48.536Z,21.17
2023-03-15T01:56:15.914Z,21.15
2023-03-15T01:58:44.276Z,21.09
2023-03-15T02:01:11.590Z,21.09
2023-03-15T02:03:46.850Z,21.06
2023-03-15T02:06:18.365Z,21.03
2023-03-15T02:08:49.652Z,20.97
2023-03-15T02:11:18.158Z,20.95
2023-03-15T02:13:45.373Z,20.88
2023-03-15T02:16:12.426Z,20.85
2023-03-15T02:18:39.403Z,20.84
2023-03-15T02:21:09.333Z,20.80
2023-03-15T02:23:36.182Z,20.76
2023-03-15T02:26:06.259Z,20.75
2023-03-15T02:28:33.432Z,20.74
2023-03-15T02:31:00.550Z,20.68
2023-03-15T02:33:30.595Z,20.67
2023-03-15T02:36:06.401Z,20.65
2023-03-15T02:38:33.346Z,20.61
2023-03-15T02:41:00.626Z,20.58
2023-03-15T02:43:29.248Z,20.55
2023-03-15T02:45:56.809Z,20.54
2023-03-15T02:48:23.749Z,20.53
2023-03-15T02:50:50.596Z,20.52
2023-03-15T02:53:17.460Z,20.48
2023-03-15T02:55:44.394Z,20.45
2023-03-15T02:58:11.289Z,20.44
2023-03-15T03:00:38.746Z,20.40
2023-03-15T03:03:05.739Z,20.38
2023-03-15T03:05:32.636Z,20.36
2023-03-15T03:07:59.643Z,20.34
2023-03-15T03:10:26.550Z,20.31
2023-03-15T03:12:53.853Z,20.29
2023-03-15T03:15:21.093Z,20.26
2023-03-15T03:17:48.112Z,20.25
2023-03-15T03:20:15.407Z,20.21
2023-03-15T03:22:42.541Z,20.19
2023-03-15T03:25:10.805Z,20.16
2023-03-15T03:27:37.663Z,20.14
2023-03-15T03:30:05.654Z,20.13
2023-03-15T03:32:32.583Z,20.08
2023-03-15T03:34:59.651Z,20.07
2023-03-15T03:37:26.714Z,20.03
2023-03-15T03:39:53.587Z,20.01
2023-03-15T03:42:20.540Z,20.00
2023-03-15T03:44:47.403Z,19.98
2023-03-15T03:47:14.300Z,19.94
2023-03-15T03:49:41.177Z,19.91
2023-03-15T03:52:08.311Z,19.89
2023-03-15T03:54:35.157Z,19.90
2023-03-15T03:57:02.035Z,19.87
2023-03-15T03:59:29.108Z,19.86
2023-03-15T04:01:55.982Z,19.84
2023-03-15T04:04:23.069Z,19.83
2023-03-15T04:06:51.086Z,19.81
2023-03-15T04:09:18.068Z,19.79
2023-03-15T04:11:45.034Z,19.77
2023-03-15T04:14:12.637Z,19.75
2023-03-15T04:16:40.007Z,19.72
2023-03-15T04:19:07.366Z,19.70
2023-03-15T04:21:34.798Z,19.69
2023-03-15T04:24:02.204Z,19.68
2023-03-15T04:26:29.576Z,19.65
2023-03-15T04:28:57.488Z,19.62
2023-03-15T04:31:27.825Z,19.61
2023-03-15T04:33:55.249Z,19.60
2023-03-15T04:36:23.007Z,19.58
2023-03-15T04:38:50.239Z,19.55
2023-03-15T04:41:18.024Z,19.55
2023-03-15T04:43:44.925Z,19.53
2023-03-15T04:46:11.838Z,19.52
2023-03-15T04:48:38.802Z,19.50
2023-03-15T04:51:05.840Z,19.48
2023-03-15T04:53:33.333Z,19.46
2023-03-15T04:56:00.764Z,19.44
2023-03-15T04:58:28.768Z,19.43
2023-03-15T05:00:55.673Z,19.42
2023-03-15T05:03:22.615Z,19.41
2023-03-15T05:05:49.493Z,19.38
2023-03-15T05:08:16.393Z,19.39
2023-03-15T05:10:43.411Z,19.37
2023-03-15T05:13:10.384Z,19.37
2023-03-15T05:15:37.259Z,19.40
2023-03-15T05:18:04.529Z,19.34
2023-03-15T05:20:32.315Z,19.32
2023-03-15T05:22:59.340Z,19.28
2023-03-15T05:25:26.226Z,19.28
2023-03-15T05:27:53.575Z,19.32
2023-03-15T05:30:20.857Z,19.37
2023-03-15T05:32:48.015Z,19.48
2023-03-15T05:35:15.032Z,19.56
2023-03-15T05:37:42.658Z,19.64
2023-03-15T05:40:10.446Z,19.70
2023-03-15T05:42:37.814Z,19.76
2023-03-15T05:45:05.124Z,19.80
2023-03-15T05:47:33.711Z,19.83
2023-03-15T05:50:00.954Z,19.87
2023-03-15T05:52:27.904Z,19.92
2023-03-15T05:54:54.878Z,19.96
2023-03-15T05:57:21.790Z,20.01
2023-03-15T05:59:49.537Z,20.07
2023-03-15T06:02:16.385Z,20.13
2023-03-15T06:04:43.339Z,20.18
2023-03-15T06:07:10.266Z,20.24
2023-03-15T06:09:37.428Z,20.29
2023-03-15T06:12:04.851Z,20.35
2023-03-15T06:14:31.719Z,20.39
2023-03-15T06:16:58.779Z,20.45
2023-03-15T06:19:25.741Z,20.49
2023-03-15T06:21:52.702Z,20.55
2023-03-15T06:24:19.566Z,20.59
2023-03-15T06:26:46.452Z,20.65
2023-03-15T06:29:13.390Z,20.70
2023-03-15T06:31:40.294Z,20.75
2023-03-15T06:34:07.206Z,20.78
2023-03-15T06:36:34.237Z,20.83
2023-03-15T06:39:03.240Z,20.86
2023-03-15T06:41:30.481Z,20.91
2023-03-15T06:43:57.548Z,20.92
2023-03-15T06:46:24.681Z,20.94
2023-03-15T06:48:51.822Z,20.97
2023-03-15T06:51:19.033Z,20.99
2023-03-15T06:53:46.228Z,21.00
2023-03-15T06:56:13.683Z,21.02
2023-03-15T06:58:40.622Z,21.03
2023-03-15T07:01:07.714Z,21.05
2023-03-15T07:03:34.857Z,21.06
2023-03-15T07:06:02.236Z,21.08
2023-03-15T07:08:29.302Z,21.09
2023-03-15T07:10:56.706Z,21.11
2023-03-15T07:13:23.785Z,21.12
2023-03-15T07:15:52.785Z,21.14
2023-03-15T07:18:20.257Z,21.17
2023-03-15T07:20:47.841Z,21.16
2023-03-15T07:23:15.165Z,21.17
2023-03-15T07:25:54.324Z,21.15
2023-03-15T07:28:22.864Z,21.14
2023-03-15T07:30:53.144Z,21.14
2023-03-15T07:33:23.156Z,21.14
2023-03-15T07:35:52.054Z,21.14
2023-03-15T07:38:19.483Z,21.13
2023-03-15T07:40:46.504Z,20.82
2023-03-15T07:43:13.546Z,20.65
2023-03-15T07:45:41.307Z,20.73
2023-03-15T07:48:08.440Z,20.78
2023-03-15T07:50:35.690Z,20.81
2023-03-15T07:53:03.776Z,20.82
2023-03-15T07:55:31.891Z,20.84
2023-03-15T07:58:00.539Z,20.88
2023-03-15T08:00:27.969Z,20.90
2023-03-15T08:02:55.603Z,20.93
2023-03-15T08:05:22.819Z,20.94
2023-03-15T08:07:49.987Z,20.95
2023-03-15T08:10:17.940Z,20.99
2023-03-15T08:12:45.459Z,20.99
2023-03-15T08:15:13.811Z,21.01
2023-03-15T08:17:42.078Z,21.04
2023-03-15T08:20:11.917Z,21.05
2023-03-15T08:22:39.392Z,21.04
2023-03-15T08:25:07.554Z,21.04
2023-03-15T08:27:34.907Z,21.05
2023-03-15T08:30:02.339Z,21.09
2023-03-15T08:32:30.915Z,21.10
2023-03-15T08:34:58.843Z,21.04
2023-03-15T08:37:26.089Z,21.07
2023-03-15T08:40:01.366Z,21.06
2023-03-15T08:42:28.908Z,21.05
2023-03-15T08:45:00.089Z,21.01
2023-03-15T08:47:27.209Z,21.02
2023-03-15T08:49:54.435Z,21.01
2023-03-15T08:52:22.014Z,21.03
2023-03-15T08:54:49.464Z,21.03
2023-03-15T08:57:16.502Z,21.03
2023-03-15T08:59:43.807Z,21.01
2023-03-15T09:02:14.778Z,21.02
2023-03-15T09:04:41.986Z,21.01
2023-03-15T09:07:09.431Z,20.99
2023-03-15T09:09:44.836Z,20.94
2023-03-15T09:12:12.118Z,20.92
2023-03-15T09:14:39.467Z,20.87
2023-03-15T09:17:07.351Z,20.86
2023-03-15T09:19:34.770Z,20.83
2023-03-15T09:22:16.332Z,20.82
2023-03-15T09:24:44.250Z,20.80
2023-03-15T09:27:26.234Z,20.78
2023-03-15T09:29:53.427Z,20.78
2023-03-15T09:32:21.524Z,20.74
2023-03-15T09:34:48.794Z,20.74
2023-03-15T09:37:16.190Z,20.72
2023-03-15T09:39:43.595Z,20.69
2023-03-15T09:42:17.514Z,20.66
2023-03-15T09:44:45.885Z,20.66
2023-03-15T09:47:21.347Z,20.62
2023-03-15T09:49:55.377Z,20.58
2023-03-15T09:52:22.888Z,20.53
2023-03-15T09:54:54.642Z,20.53
2023-03-15T09:57:28.389Z,20.52
2023-03-15T09:59:56.986Z,20.47
2023-03-15T10:02:25.360Z,20.45
2023-03-15T10:04:57.155Z,20.42
2023-03-15T10:07:25.271Z,20.38
2023-03-15T10:09:52.774Z,20.36
2023-03-15T10:12:24.759Z,20.34
2023-03-15T10:14:55.747Z,20.33
2023-03-15T10:17:25.961Z,20.32
2023-03-15T10:19:55.550Z,20.27
2023-03-15T10:22:26.159Z,20.22
2023-03-15T10:24:56.853Z,20.22
2023-03-15T10:27:27.381Z,20.20
2023-03-15T10:30:01.953Z,20.15
2023-03-15T10:33:01.879Z,20.12
2023-03-15T10:41:17.882Z,20.02
2023-03-15T10:43:57.035Z,19.96
2023-03-15T10:46:24.453Z,19.93
2023-03-15T10:48:53.857Z,19.90
2023-03-15T10:51:24.475Z,19.86
2023-03-15T10:53:54.659Z,19.85
2023-03-15T10:56:26.146Z,19.83
2023-03-15T10:59:09.458Z,19.84
2023-03-15T11:01:39.181Z,19.86
2023-03-15T11:04:12.973Z,19.88
2023-03-15T11:06:42.465Z,19.92
2023-03-15T11:09:12.259Z,19.97
2023-03-15T11:11:42.368Z,20.07
2023-03-15T11:14:09.238Z,20.16
2023-03-15T11:16:38.499Z,20.23
2023-03-15T11:19:12.578Z,20.30
2023-03-15T11:21:40.733Z,20.36
2023-03-15T11:24:07.883Z,20.39
2023-03-15T11:26:37.694Z,20.44
2023-03-15T11:29:06.948Z,20.48
2023-03-15T11:31:34.503Z,20.52
2023-03-15T11:34:04.808Z,20.53
2023-03-15T11:36:34.094Z,20.56
2023-03-15T11:39:04.092Z,20.57
2023-03-15T11:41:31.332Z,20.59
2023-03-15T11:44:01.527Z,20.58
2023-03-15T11:46:32.620Z,20.62
2023-03-15T11:49:03.252Z,20.61
2023-03-15T11:51:33.996Z,20.63
2023-03-15T11:54:05.900Z,20.61
2023-03-15T11:56:46.318Z,20.62
2023-03-15T11:59:13.863Z,20.64
2023-03-15T12:01:43.883Z,20.59
2023-03-15T12:04:15.563Z,20.59
2023-03-15T12:06:43.249Z,20.55
2023-03-15T12:09:13.448Z,20.53
2023-03-15T12:11:41.813Z,20.52
2023-03-15T12:14:12.158Z,20.50
2023-03-15T12:16:42.498Z,20.47
2023-03-15T12:19:11.913Z,20.44
2023-03-15T12:21:41.773Z,20.41
2023-03-15T12:24:16.072Z,20.36
2023-03-15T12:26:46.480Z,20.32
2023-03-15T12:29:17.221Z,20.30
2023-03-15T12:31:47.798Z,20.29
2023-03-15T12:34:23.249Z,20.25
2023-03-15T12:36:52.492Z,20.23
2023-03-15T12:39:21.158Z,20.21
2023-03-15T12:41:49.761Z,20.15
2023-03-15T12:44:18.982Z,20.15
2023-03-15T12:46:46.382Z,20.12
2023-03-15T12:49:16.941Z,20.12
2023-03-15T12:51:53.924Z,20.07
2023-03-15T12:54:24.305Z,20.06
2023-03-15T12:56:56.645Z,20.03
2023-03-15T12:59:24.456Z,20.01
2023-03-15T13:01:52.290Z,19.99
2023-03-15T13:04:19.493Z,19.95
2023-03-15T13:06:50.091Z,19.94
2023-03-15T13:09:18.591Z,19.93
2023-03-15T13:11:48.970Z,19.90
2023-03-15T13:14:19.322Z,19.86
2023-03-15T13:16:51.674Z,19.85
2023-03-15T13:19:20.793Z,19.81
2023-03-15T13:21:52.999Z,19.78
2023-03-15T13:24:24.288Z,19.76
2023-03-15T13:26:54.435Z,19.73
2023-03-15T13:29:27.346Z,19.73
2023-03-15T13:32:01.078Z,19.70
2023-03-15T13:34:31.453Z,19.66
2023-03-15T13:36:59.409Z,19.64
2023-03-15T13:39:27.666Z,19.59
2023-03-15T13:41:58.011Z,19.56
2023-03-15T13:44:25.610Z,19.53
2023-03-15T13:46:53.786Z,19.52
2023-03-15T13:49:21.686Z,19.47
2023-03-15T13:51:49.649Z,19.46
2023-03-15T13:54:20.153Z,19.43
2023-03-15T13:56:56.551Z,19.39
2023-03-15T13:59:27.090Z,19.37
2023-03-15T14:01:54.973Z,19.34
2023-03-15T14:04:23.148Z,19.33
2023-03-15T14:06:51.435Z,19.30
2023-03-15T14:09:22.060Z,19.28
2023-03-15T14:11:52.792Z,19.30
2023-03-15T14:14:22.840Z,19.32
2023-03-15T14:17:04.315Z,19.35
2023-03-15T14:19:34.010Z,19.38
2023-03-15T14:22:02.591Z,19.43
2023-03-15T14:24:30.092Z,19.47
2023-03-15T14:26:58.520Z,19.54
2023-03-15T14:29:29.547Z,19.63
2023-03-15T14:32:00.435Z,19.71
2023-03-15T14:34:34.197Z,19.79
2023-03-15T14:37:06.101Z,19.86
2023-03-15T14:39:36.260Z,19.93
2023-03-15T14:42:03.630Z,19.99
2023-03-15T14:44:31.069Z,20.06
2023-03-15T14:46:58.741Z,20.12
2023-03-15T14:49:27.129Z,20.18
2023-03-15T14:51:57.207Z,20.24
2023-03-15T14:54:24.595Z,20.31
2023-03-15T14:56:51.952Z,20.36
2023-03-15T14:59:19.415Z,20.39
2023-03-15T15:01:50.395Z,20.45
2023-03-15T15:04:18.313Z,20.48
2023-03-15T15:06:53.009Z,20.50
2023-03-15T15:09:23.106Z,20.55
2023-03-15T15:11:51.158Z,20.59
2023-03-15T15:14:18.896Z,20.62
2023-03-15T15:16:46.664Z,20.65
2023-03-15T15:19:14.585Z,20.68
2023-03-15T15:21:44.175Z,20.71
2023-03-15T15:24:15.013Z,20.74
2023-03-15T15:26:42.546Z,20.78
2023-03-15T15:29:14.019Z,20.82
2023-03-15T15:31:41.913Z,20.83
2023-03-15T15:34:10.101Z,20.86
2023-03-15T15:36:39.103Z,20.86
2023-03-15T15:39:11.858Z,20.89
2023-03-15T15:41:39.019Z,20.89
2023-03-15T15:44:11.697Z,20.91
2023-03-15T15:46:39.295Z,20.91
2023-03-15T15:49:06.585Z,20.91
2023-03-15T15:51:38.550Z,20.90
2023-03-15T15:54:06.762Z,20.89
2023-03-15T15:56:36.208Z,20.87
2023-03-15T15:59:10.981Z,20.85
2023-03-15T16:02:00.749Z,20.83
2023-03-15T16:04:29.248Z,20.82
2023-03-15T16:06:57.722Z,20.79
2023-03-15T16:09:26.168Z,20.76
2023-03-15T16:11:54.038Z,20.74
2023-03-15T16:14:21.750Z,20.72
2023-03-15T16:16:49.197Z,20.70
2023-03-15T16:19:16.638Z,20.67
2023-03-15T16:21:47.976Z,20.63
2023-03-15T16:24:17.866Z,20.62
2023-03-15T16:26:46.304Z,20.55
2023-03-15T16:29:16.293Z,20.50
2023-03-15T16:31:44.686Z,20.47
2023-03-15T16:34:13.008Z,20.42
2023-03-15T16:36:43.985Z,20.38
2023-03-15T16:39:13.987Z,20.34
2023-03-15T16:41:41.541Z,20.30
2023-03-15T16:44:12.137Z,20.28
2023-03-15T16:46:39.925Z,20.23
2023-03-15T16:49:07.474Z,20.20
2023-03-15T16:51:36.482Z,20.18
2023-03-15T16:54:17.710Z,20.15
2023-03-15T16:56:49.734Z,20.14
2023-03-15T16:59:17.885Z,20.11
2023-03-15T17:01:46.059Z,20.15
2023-03-15T17:04:15.585Z,20.16
2023-03-15T17:06:46.849Z,20.15
2023-03-15T17:09:18.602Z,20.13
2023-03-15T17:11:47.894Z,20.12
2023-03-15T17:14:18.218Z,20.09
2023-03-15T17:16:46.647Z,20.06
2023-03-15T17:19:15.665Z,20.03
2023-03-15T17:28:20.156Z,20.10
2023-03-15T17:36:39.211Z,20.22
2023-03-15T17:39:07.529Z,20.30
2023-03-15T17:41:38.836Z,20.35
2023-03-15T17:44:07.126Z,20.39
2023-03-15T17:46:46.438Z,20.45
2023-03-15T17:49:16.893Z,20.50
2023-03-15T17:51:44.678Z,20.56
2023-03-15T17:54:14.381Z,20.56
2023-03-15T17:56:41.581Z,20.58
2023-03-15T17:59:11.171Z,20.61
2023-03-15T18:01:39.401Z,20.65
2023-03-15T18:04:10.032Z,20.66
2023-03-15T18:06:37.448Z,20.71
2023-03-15T18:09:11.948Z,20.73
2023-03-15T18:11:44.042Z,20.78
2023-03-15T18:14:14.406Z,20.81
2023-03-15T18:20:03.374Z,20.86
2023-03-15T18:22:32.267Z,20.89
2023-03-15T18:25:00.946Z,20.90
2023-03-15T18:27:29.449Z,20.92
2023-03-15T18:29:59.566Z,20.96
2023-03-15T18:32:28.218Z,20.99
2023-03-15T18:34:56.052Z,21.01
2023-03-15T18:37:24.060Z,21.04
2023-03-15T18:39:51.723Z,21.06
2023-03-15T18:42:18.886Z,21.08
2023-03-15T18:44:46.239Z,21.09
2023-03-15T18:47:14.363Z,21.12
2023-03-15T18:49:41.699Z,21.10
2023-03-15T18:52:09.588Z,21.11
2023-03-15T18:54:37.415Z,21.11
2023-03-15T18:57:05.340Z,21.09
2023-03-15T18:59:34.247Z,21.09
2023-03-15T19:02:01.792Z,21.08
2023-03-15T19:04:29.741Z,21.06
2023-03-15T19:10:14.123Z,21.04
2023-03-15T19:12:41.213Z,21.01
2023-03-15T19:15:11.880Z,21.03
2023-03-15T19:17:39.140Z,20.99
2023-03-15T19:20:07.768Z,20.95
2023-03-15T19:22:35.020Z,20.96
2023-03-15T19:25:01.692Z,20.92
2023-03-15T19:27:28.318Z,20.83
2023-03-15T19:29:54.927Z,20.79
2023-03-15T19:32:21.701Z,20.77
2023-03-15T19:34:48.442Z,20.74
2023-03-15T19:37:15.232Z,20.72
2023-03-15T19:40:06.426Z,20.68
2023-03-15T19:42:45.362Z,20.66
2023-03-15T19:45:32.450Z,20.63
2023-03-15T19:48:20.604Z,20.59
2023-03-15T19:51:11.509Z,20.56
2023-03-15T19:53:58.078Z,20.52
2023-03-15T19:56:49.538Z,20.51
2023-03-15T19:59:41.726Z,20.54
2023-03-15T20:02:34.048Z,20.52
2023-03-15T20:05:31.617Z,20.51
2023-03-15T20:08:28.187Z,20.43
2023-03-15T20:11:42.715Z,20.44
2023-03-15T20:14:34.778Z,20.47
2023-03-15T20:17:36.678Z,20.50
2023-03-15T20:20:29.557Z,20.54
2023-03-15T20:23:17.546Z,20.59
2023-03-15T20:25:44.182Z,20.62
2023-03-15T20:28:11.306Z,20.64
2023-03-15T20:30:43.893Z,20.67
2023-03-15T20:33:12.300Z,20.71
2023-03-15T20:35:39.020Z,20.73
2023-03-15T20:38:08.690Z,20.77
2023-03-15T20:40:38.723Z,20.79
2023-03-15T20:43:06.118Z,20.81
2023-03-15T20:45:33.533Z,20.82
2023-03-15T20:48:12.556Z,20.83
2023-03-15T20:50:39.322Z,20.85
2023-03-15T20:53:06.138Z,20.86
2023-03-15T20:55:32.810Z,20.86
2023-03-15T20:58:05.453Z,20.86
2023-03-15T21:00:32.499Z,20.87
2023-03-15T21:02:59.218Z,20.89
2023-03-15T21:05:28.079Z,20.86
2023-03-15T21:08:10.056Z,20.86
2023-03-15T21:10:37.216Z,20.85
2023-03-15T21:13:09.851Z,20.85
2023-03-15T21:15:49.406Z,20.84
2023-03-15T21:18:17.039Z,20.82
2023-03-15T21:20:44.150Z,20.83
2023-03-15T21:23:11.481Z,20.83
2023-03-15T21:25:38.271Z,20.84
2023-03-15T21:28:07.526Z,20.81
2023-03-15T21:30:34.226Z,20.81
2023-03-15T21:33:01.649Z,20.80
2023-03-15T21:35:28.314Z,20.80
2023-03-15T21:38:07.893Z,20.81
2023-03-15T21:40:35.314Z,20.77
2023-03-15T21:43:02.250Z,20.78
2023-03-15T21:45:30.757Z,20.74
2023-03-15T21:48:07.838Z,20.72
2023-03-15T21:50:35.224Z,20.64
2023-03-15T21:53:02.517Z,20.64
2023-03-15T21:55:33.819Z,20.59
2023-03-15T21:58:03.279Z,20.54
2023-03-15T22:00:30.631Z,20.49
2023-03-15T22:02:57.969Z,20.47
2023-03-15T22:05:25.505Z,20.43
2023-03-15T22:07:54.339Z,20.40
2023-03-15T22:10:22.326Z,20.37
2023-03-15T22:12:49.145Z,20.37
2023-03-15T22:15:15.895Z,20.34
2023-03-15T22:17:42.655Z,20.32
2023-03-15T22:20:13.328Z,20.42
2023-03-15T22:22:40.008Z,20.38
2023-03-15T22:25:06.948Z,20.34
2023-03-15T22:27:33.642Z,20.33
2023-03-15T22:30:00.408Z,20.31
2023-03-15T22:32:27.197Z,20.28
2023-03-15T22:34:53.959Z,20.24
2023-03-15T22:37:20.721Z,20.22
2023-03-15T22:39:48.253Z,20.21
2023-03-15T22:42:34.526Z,20.18
2023-03-15T22:45:17.310Z,20.15
2023-03-15T22:47:44.026Z,20.13
2023-03-15T22:50:11.782Z,20.17
2023-03-15T22:52:38.721Z,20.24
2023-03-15T22:55:06.307Z,20.30
2023-03-15T22:57:39.731Z,20.35
2023-03-15T23:00:32.658Z,20.39
2023-03-15T23:03:06.662Z,20.42
2023-03-15T23:05:54.682Z,20.47
2023-03-15T23:11:14.465Z,20.55
2023-03-15T23:13:42.502Z,20.59
2023-03-15T23:16:10.466Z,20.62
2023-03-15T23:18:43.902Z,20.66
2023-03-15T23:21:21.442Z,20.69
2023-03-15T23:23:49.479Z,20.73
2023-03-15T23:26:17.127Z,20.76
2023-03-15T23:28:43.839Z,20.79
2023-03-15T23:31:10.543Z,20.81
2023-03-15T23:33:37.832Z,20.83
2023-03-15T23:36:05.951Z,20.85
2023-03-15T23:38:36.026Z,20.87
2023-03-15T23:41:02.659Z,20.89
2023-03-15T23:43:29.264Z,20.90
2023-03-15T23:45:57.015Z,20.94
2023-03-15T23:48:23.730Z,20.94
2023-03-15T23:50:54.477Z,20.95
2023-03-15T23:53:21.614Z,20.97
2023-03-15T23:55:48.944Z,20.97
2023-03-15T23:58:15.738Z,20.98
